Time;durP1;ratioP1;P1;durP2;ratioP2;P2;SDS_P1;SDS_P2;PMS_P1;PMS_P2;Temp;Humidity;BMP_temperature;BMP_pressure;BME280_temperature;BME280_humidity;BME280_pressure;Samples;Min_cycle;Max_cycle;Signal;HPM_P1;HPM_P2
2021/12/25 00:03:00;;;;;;;9.50;7.30;;;;;;;6.89;86.36;100482.56;5072892;28;20082;-65
2021/12/25 00:05:25;;;;;;;10.68;7.38;;;;;;;6.87;85.92;100481.66;5054768;28;20028;-65
2021/12/25 00:07:51;;;;;;;9.18;7.13;;;;;;;6.81;86.59;100471.00;5072672;28;20028;-66
2021/12/25 00:10:17;;;;;;;10.75;7.72;;;;;;;6.79;86.52;100476.25;5072546;28;20389;-66
2021/12/25 00:12:45;;;;;;;11.68;8.07;;;;;;;6.76;86.73;100478.78;5072541;28;20028;-66
2021/12/25 00:15:10;;;;;;;10.20;7.75;;;;;;;6.72;85.88;100472.63;5072584;28;20035;-65
2021/12/25 00:17:36;;;;;;;9.38;7.00;;;;;;;6.75;86.21;100485.78;5073690;28;20373;-65
2021/12/25 00:20:03;;;;;;;10.38;7.45;;;;;;;6.72;86.23;100491.00;5076228;28;20032;-65
2021/12/25 00:22:28;;;;;;;12.70;7.65;;;;;;;6.70;86.54;100484.81;5095244;28;20134;-65
2021/12/25 00:24:53;;;;;;;10.82;7.70;;;;;;;6.68;85.78;100478.66;5096562;28;20149;-66
2021/12/25 00:30:09;;;;;;;10.75;8.15;;;;;;;6.70;86.27;100481.31;5096663;28;20036;-65
2021/12/25 00:32:50;;;;;;;11.05;7.65;;;;;;;6.69;85.78;100476.94;5096468;28;20028;-65
2021/12/25 00:35:15;;;;;;;10.77;7.70;;;;;;;6.67;85.87;100469.00;5096350;28;20035;-65
2021/12/25 00:37:41;;;;;;;10.80;7.85;;;;;;;6.68;86.05;100460.28;5096106;28;20024;-66
2021/12/25 00:40:07;;;;;;;12.27;8.25;;;;;;;6.70;86.05;100465.56;5096317;28;20035;-65
2021/12/25 00:42:41;;;;;;;12.63;8.23;;;;;;;6.69;86.51;100469.06;5077966;28;20021;-66
2021/12/25 00:45:07;;;;;;;12.20;8.25;;;;;;;6.67;86.31;100463.75;5096382;28;20021;-65
2021/12/25 00:47:33;;;;;;;12.05;8.45;;;;;;;6.68;86.31;100469.88;5096064;28;20389;-65
2021/12/25 00:49:58;;;;;;;11.60;8.15;;;;;;;6.70;86.17;100471.69;5096068;28;20039;-65
2021/12/25 00:52:23;;;;;;;13.20;8.15;;;;;;;6.67;86.79;100473.38;5096174;28;20440;-66
2021/12/25 00:54:49;;;;;;;10.48;7.95;;;;;;;6.67;86.32;100478.63;5095987;28;20089;-65
2021/12/25 00:57:15;;;;;;;11.02;7.93;;;;;;;6.68;85.77;100476.03;5095858;28;20089;-66
2021/12/25 00:59:40;;;;;;;10.85;8.20;;;;;;;6.71;86.05;100488.31;5095854;28;20039;-65
2021/12/25 01:02:05;;;;;;;12.35;8.45;;;;;;;6.73;86.07;100489.25;5095855;28;20024;-66
2021/12/25 01:04:31;;;;;;;11.40;7.88;;;;;;;6.75;85.77;100480.53;5096030;28;20071;-65
2021/12/25 01:06:57;;;;;;;12.50;8.57;;;;;;;6.75;86.05;100479.66;5095701;28;20396;-66
2021/12/25 01:09:22;;;;;;;11.43;8.45;;;;;;;6.76;85.79;100489.31;5095646;28;20035;-65
2021/12/25 01:11:50;;;;;;;12.95;7.97;;;;;;;6.74;86.06;100481.41;5095733;28;20028;-65
2021/12/25 01:14:28;;;;;;;12.13;8.65;;;;;;;6.70;85.91;100490.06;5095805;28;20032;-65
2021/12/25 01:27:26;;;;;;;11.80;8.02;;;;;;;6.61;86.10;100475.88;5095517;28;20040;-65
2021/12/25 01:30:16;;;;;;;13.15;8.48;;;;;;;6.55;86.17;100489.75;5094593;28;20115;-65
2021/12/25 01:48:35;;;;;;;15.43;11.30;;;;;;;6.30;86.98;100464.72;5094917;28;20047;-65
2021/12/25 01:51:01;;;;;;;16.73;11.05;;;;;;;6.26;86.38;100469.03;5094957;28;20077;-66
2021/12/25 01:53:26;;;;;;;16.17;11.43;;;;;;;6.23;86.07;100470.69;5094697;28;20024;-66
2021/12/25 01:55:52;;;;;;;15.95;11.68;;;;;;;6.25;86.42;100477.75;5094866;28;20106;-65
2021/12/25 01:58:18;;;;;;;17.20;12.43;;;;;;;6.22;86.61;100476.78;5076767;28;20035;-65
2021/12/25 02:00:47;;;;;;;18.08;12.32;;;;;;;6.21;86.50;100475.91;5094601;28;20031;-65
2021/12/25 02:03:16;;;;;;;18.02;12.13;;;;;;;6.20;86.55;100465.38;5076558;28;20094;-65
2021/12/25 02:05:41;;;;;;;21.10;12.85;;;;;;;6.19;86.73;100476.72;5094614;28;20070;-65
2021/12/25 02:08:07;;;;;;;17.33;12.48;;;;;;;6.17;86.99;100474.06;5076332;28;20483;-65
2021/12/25 02:10:34;;;;;;;18.10;13.13;;;;;;;6.18;86.68;100477.56;5094600;28;20032;-65
2021/12/25 02:13:01;;;;;;;19.52;13.48;;;;;;;6.13;86.30;100466.09;5094423;28;20059;-66
2021/12/25 02:15:28;;;;;;;21.73;13.13;;;;;;;6.13;86.41;100468.72;5094429;28;20024;-66
2021/12/25 02:18:11;;;;;;;17.83;13.07;;;;;;;6.15;86.46;100469.63;5094437;28;20028;-66
2021/12/25 02:20:48;;;;;;;16.98;12.18;;;;;;;6.13;86.27;100469.59;5094040;28;20093;-65
2021/12/25 02:23:21;;;;;;;17.63;12.55;;;;;;;6.09;86.08;100465.16;5094412;28;20115;-65
2021/12/25 02:25:47;;;;;;;16.95;12.23;;;;;;;6.08;86.33;100466.00;5094305;28;20035;-65
2021/12/25 02:28:14;;;;;;;16.30;11.48;;;;;;;6.08;86.46;100463.38;5094100;28;20039;-65
2021/12/25 02:30:43;;;;;;;15.95;11.52;;;;;;;6.00;87.02;100471.06;5094042;28;20032;-66
2021/12/25 02:33:09;;;;;;;16.00;11.32;;;;;;;5.96;86.67;100469.22;5094108;28;20138;-65
2021/12/25 02:35:34;;;;;;;16.42;11.40;;;;;;;5.88;85.90;100468.13;5094077;28;20439;-66
2021/12/25 02:37:59;;;;;;;16.85;11.25;;;;;;;5.88;86.05;100473.38;5094017;28;20071;-68
2021/12/25 02:40:26;;;;;;;15.30;11.48;;;;;;;5.83;86.32;100466.25;5093123;28;20118;-67
2021/12/25 02:42:52;;;;;;;16.83;10.55;;;;;;;5.77;86.35;100477.44;5094008;28;20066;-66
2021/12/25 02:45:20;;;;;;;17.10;10.77;;;;;;;5.68;86.53;100462.38;5093792;28;20059;-66
2021/12/25 02:47:47;;;;;;;13.95;9.50;;;;;;;5.68;86.47;100480.75;5093706;28;20027;-66
2021/12/25 02:50:20;;;;;;;12.73;9.38;;;;;;;5.65;86.43;100474.53;5093936;28;20024;-66
2021/12/25 02:52:46;;;;;;;14.18;9.68;;;;;;;5.59;86.04;100472.66;5093873;28;20445;-66
2021/12/25 02:55:11;;;;;;;13.65;9.40;;;;;;;5.50;86.58;100470.69;5093791;28;20047;-66
2021/12/25 02:57:37;;;;;;;13.73;9.50;;;;;;;5.42;86.10;100479.19;5093653;28;20020;-66
2021/12/25 03:00:07;;;;;;;13.75;10.27;;;;;;;5.31;86.56;100492.03;5093527;28;20530;-66
2021/12/25 03:02:33;;;;;;;14.05;9.40;;;;;;;5.16;86.19;100474.16;5093573;28;20024;-66
2021/12/25 03:04:58;;;;;;;14.85;9.32;;;;;;;5.14;86.50;100481.13;5093732;28;20050;-66
2021/12/25 03:07:23;;;;;;;16.45;10.50;;;;;;;5.12;86.48;100489.78;5093732;28;20024;-66
2021/12/25 03:09:49;;;;;;;14.82;9.98;;;;;;;5.12;86.47;100500.25;5093442;28;20028;-66
2021/12/25 03:12:25;;;;;;;19.08;10.90;;;;;;;5.11;86.61;100495.84;5093517;28;20024;-66
2021/12/25 03:17:46;;;;;;;18.70;10.57;;;;;;;5.00;86.21;100495.56;4991732;28;20065;-66
2021/12/25 03:20:12;;;;;;;17.63;11.00;;;;;;;5.00;86.00;100506.03;4975422;28;20412;-66
2021/12/25 03:22:39;;;;;;;16.90;10.82;;;;;;;4.96;86.78;100504.16;4991585;28;20062;-66
2021/12/25 03:25:06;;;;;;;16.15;10.00;;;;;;;4.96;85.50;100506.78;4991814;28;20030;-67
2021/12/25 03:27:42;;;;;;;16.75;10.43;;;;;;;4.96;85.21;100514.63;4991708;28;20042;-66
2021/12/25 03:30:09;;;;;;;14.82;10.25;;;;;;;4.90;85.03;100519.72;4991595;28;20037;-66
2021/12/25 03:32:35;;;;;;;14.60;9.70;;;;;;;4.82;85.04;100518.59;4991657;28;20061;-66
2021/12/25 03:35:01;;;;;;;15.30;9.88;;;;;;;4.75;86.10;100517.53;4991635;28;20065;-66
2021/12/25 03:37:27;;;;;;;14.02;9.80;;;;;;;4.73;85.17;100519.22;4991799;28;20037;-66
2021/12/25 03:39:52;;;;;;;12.75;9.07;;;;;;;4.65;84.88;100516.38;4991543;28;20075;-66
2021/12/25 03:42:18;;;;;;;12.75;9.15;;;;;;;4.53;85.53;100516.91;4991558;28;20054;-66
2021/12/25 03:44:45;;;;;;;15.20;9.82;;;;;;;4.52;86.19;100512.53;4991383;28;20486;-66
2021/12/25 03:47:22;;;;;;;16.33;9.73;;;;;;;4.52;84.94;100524.72;4991439;28;20476;-66
2021/12/25 03:58:26;;;;;;;13.60;9.88;;;;;;;4.45;85.83;100525.38;5054728;28;20559;-66
2021/12/25 04:00:58;;;;;;;14.00;9.85;;;;;;;4.43;85.80;100529.69;5054592;28;20064;-66
2021/12/25 04:03:38;;;;;;;14.98;10.73;;;;;;;4.42;84.54;100533.13;5054525;28;20037;-66
2021/12/25 04:06:08;;;;;;;13.80;10.15;;;;;;;4.34;85.08;100534.63;5054564;28;20494;-66
2021/12/25 04:08:40;;;;;;;14.82;10.63;;;;;;;4.31;85.88;100534.53;5054502;28;20037;-66
2021/12/25 04:11:12;;;;;;;15.57;11.65;;;;;;;4.22;86.01;100536.00;5054482;28;20099;-67
2021/12/25 04:13:41;;;;;;;18.85;11.50;;;;;;;4.18;86.42;100536.75;5054335;28;20033;-66
2021/12/25 04:16:06;;;;;;;15.90;10.82;;;;;;;4.19;86.72;100546.38;5037353;28;20541;-67
2021/12/25 04:18:32;;;;;;;16.90;12.05;;;;;;;4.19;86.49;100543.75;5054377;28;20035;-68
2021/12/25 04:20:57;;;;;;;16.67;11.82;;;;;;;4.21;86.34;100552.56;5054139;28;20057;-66
2021/12/25 04:23:27;;;;;;;16.40;11.73;;;;;;;4.15;85.94;100544.50;5054193;28;20124;-66
2021/12/25 04:25:54;;;;;;;17.33;11.68;;;;;;;4.19;84.81;100559.44;5054278;28;20144;-66
2021/12/25 04:28:35;;;;;;;15.98;11.55;;;;;;;4.14;85.09;100570.59;5061868;28;20043;-66
2021/12/25 05:01:41;;;;;;;15.07;11.50;;;;;;;3.78;83.76;100575.53;5034189;28;20048;-67
2021/12/25 05:04:09;;;;;;;17.17;11.80;;;;;;;3.53;83.03;100592.97;5033111;28;20035;-66
2021/12/25 05:06:34;;;;;;;15.55;11.63;;;;;;;3.49;83.23;100601.53;5033484;28;20036;-66
2021/12/25 05:09:00;;;;;;;16.63;11.73;;;;;;;3.42;83.72;100592.56;5033521;28;20033;-66
2021/12/25 05:11:25;;;;;;;17.83;12.80;;;;;;;3.39;84.30;100589.88;5033392;28;20033;-65
2021/12/25 05:13:50;;;;;;;17.45;11.95;;;;;;;3.46;84.19;100604.03;5033348;28;20111;-66
2021/12/25 05:16:18;;;;;;;17.02;12.00;;;;;;;3.50;84.35;100598.06;5033295;28;20072;-65
2021/12/25 05:18:43;;;;;;;15.95;11.85;;;;;;;3.49;84.92;100598.91;5095461;28;20025;-66
2021/12/25 05:21:09;;;;;;;17.98;11.60;;;;;;;3.46;84.47;100597.06;5095533;28;20043;-66
2021/12/25 05:23:35;;;;;;;15.95;11.30;;;;;;;3.45;84.08;100602.25;5095678;28;20480;-66
2021/12/25 05:26:00;;;;;;;16.23;11.68;;;;;;;3.44;83.57;100603.09;5095387;28;20024;-66
2021/12/25 05:28:35;;;;;;;18.15;11.73;;;;;;;3.46;84.46;100611.88;5095367;28;20031;-65
2021/12/25 05:31:00;;;;;;;15.27;11.45;;;;;;;3.46;83.91;100617.09;5095291;28;20032;-66
2021/12/25 05:33:25;;;;;;;18.27;11.25;;;;;;;3.41;82.88;100610.81;5095229;28;20031;-66
2021/12/25 05:35:51;;;;;;;14.48;10.48;;;;;;;3.37;83.41;100614.16;5095127;28;20106;-66
2021/12/25 05:38:16;;;;;;;15.57;10.90;;;;;;;3.31;82.73;100617.44;5095217;28;20115;-65
2021/12/25 05:40:43;;;;;;;16.65;10.80;;;;;;;3.28;83.62;100619.03;5076900;28;20032;-67
2021/12/25 05:43:08;;;;;;;15.18;10.95;;;;;;;3.23;83.40;100624.09;5095188;28;20054;-66
2021/12/25 05:45:34;;;;;;;16.63;11.23;;;;;;;3.21;83.75;100616.22;5094964;28;20028;-66
2021/12/25 05:47:59;;;;;;;15.48;11.18;;;;;;;3.21;83.69;100617.91;5094996;28;20028;-66
2021/12/25 05:50:26;;;;;;;15.73;11.30;;;;;;;3.15;83.92;100620.31;5094913;28;20030;-66
2021/12/25 05:52:52;;;;;;;16.50;11.02;;;;;;;3.15;84.41;100623.81;5094606;28;20024;-66
2021/12/25 05:55:18;;;;;;;16.27;11.88;;;;;;;3.13;84.47;100625.50;5076649;28;20362;-67
2021/12/25 05:57:43;;;;;;;15.65;10.70;;;;;;;3.18;85.88;100628.28;5094707;28;20031;-66
2021/12/25 06:00:10;;;;;;;17.45;12.27;;;;;;;3.09;84.70;100618.38;5094701;28;20024;-66
2021/12/25 06:02:36;;;;;;;14.93;10.95;;;;;;;3.04;84.75;100638.22;5094750;28;20080;-66
2021/12/25 06:05:04;;;;;;;15.73;10.75;;;;;;;2.99;84.48;100635.41;5094600;28;20036;-66
2021/12/25 06:07:30;;;;;;;16.38;11.32;;;;;;;2.97;84.18;100641.41;5094349;28;20499;-66
2021/12/25 06:09:55;;;;;;;14.43;10.38;;;;;;;2.87;84.79;100634.03;5094575;28;20350;-66
2021/12/25 06:12:22;;;;;;;14.77;10.07;;;;;;;2.86;84.87;100648.81;5094649;28;20077;-66
2021/12/25 06:14:48;;;;;;;14.68;10.35;;;;;;;2.80;84.60;100648.59;5094411;28;20032;-67
2021/12/25 06:17:14;;;;;;;13.90;10.75;;;;;;;2.74;85.07;100650.94;5094423;28;20032;-64
2021/12/25 06:19:39;;;;;;;14.20;10.18;;;;;;;2.72;84.65;100657.84;5094327;28;20032;-66
2021/12/25 06:22:04;;;;;;;13.93;10.20;;;;;;;2.73;84.94;100655.28;5093943;28;20040;-66
2021/12/25 06:24:31;;;;;;;15.50;10.02;;;;;;;2.76;84.81;100657.13;5094230;28;20024;-66
2021/12/25 06:26:56;;;;;;;13.88;9.70;;;;;;;2.75;85.40;100657.97;5094218;28;20032;-66
2021/12/25 06:29:23;;;;;;;15.05;9.95;;;;;;;2.75;85.89;100661.47;5094109;28;20024;-66
2021/12/25 06:31:50;;;;;;;12.05;8.77;;;;;;;2.74;84.13;100662.28;5093974;28;20052;-66
2021/12/25 06:34:16;;;;;;;19.10;13.73;;;;;;;2.70;83.88;100668.22;5094084;28;20028;-67
2021/12/25 06:36:41;;;;;;;11.95;9.10;;;;;;;2.68;84.16;100669.88;5093974;28;20050;-67
2021/12/25 06:39:11;;;;;;;13.98;9.25;;;;;;;2.64;83.94;100664.47;5093970;28;20024;-67
2021/12/25 06:41:36;;;;;;;14.02;9.25;;;;;;;2.66;84.07;100668.94;5093920;28;20521;-67
2021/12/25 06:44:11;;;;;;;14.45;9.13;;;;;;;2.64;84.57;100667.06;5093822;28;20107;-66
2021/12/25 06:46:37;;;;;;;11.95;8.85;;;;;;;2.61;85.01;100661.72;5093704;28;20059;-66
2021/12/25 06:49:02;;;;;;;15.35;10.02;;;;;;;2.65;84.95;100668.84;5093828;28;20047;-66
2021/12/25 06:51:28;;;;;;;12.90;9.43;;;;;;;2.50;84.14;100651.78;5093524;28;20457;-67
2021/12/25 06:53:53;;;;;;;13.85;9.73;;;;;;;2.60;84.34;100670.38;5093647;28;20024;-67
2021/12/25 06:56:19;;;;;;;14.35;9.90;;;;;;;2.60;85.66;100676.50;5093632;28;20024;-67
2021/12/25 06:58:44;;;;;;;14.27;9.60;;;;;;;2.66;85.63;100679.38;5093690;28;20162;-66
2021/12/25 07:01:10;;;;;;;13.02;9.85;;;;;;;2.65;84.79;100684.50;5093479;28;20035;-67
2021/12/25 07:03:35;;;;;;;14.57;9.45;;;;;;;2.68;85.09;100682.91;5093625;28;20028;-67
2021/12/25 07:06:02;;;;;;;15.38;9.45;;;;;;;2.69;85.27;100687.28;5093438;28;20028;-67
2021/12/25 07:08:27;;;;;;;13.00;9.73;;;;;;;2.67;84.16;100688.06;5093276;28;20074;-67
2021/12/25 07:10:53;;;;;;;14.18;10.05;;;;;;;2.67;84.64;100688.97;5093445;28;20024;-67
2021/12/25 07:13:19;;;;;;;12.60;9.43;;;;;;;2.65;84.45;100700.16;5093457;28;20209;-67
2021/12/25 07:15:47;;;;;;;12.85;9.75;;;;;;;2.55;84.13;100698.00;5093328;28;20032;-67
2021/12/25 07:18:12;;;;;;;11.65;8.40;;;;;;;2.49;83.79;100696.06;5093336;28;20067;-66
2021/12/25 07:20:38;;;;;;;11.07;8.18;;;;;;;2.38;84.54;100700.81;5093232;28;20062;-67
2021/12/25 07:23:03;;;;;;;11.85;8.23;;;;;;;2.40;84.53;100695.66;5092954;28;20371;-67
2021/12/25 07:25:30;;;;;;;10.57;7.75;;;;;;;2.42;83.50;100707.94;5093319;28;20027;-66
2021/12/25 07:27:57;;;;;;;14.70;8.25;;;;;;;2.41;83.70;100706.16;5074628;28;20031;-67
2021/12/25 07:30:22;;;;;;;11.50;8.25;;;;;;;2.38;83.99;100713.84;5093153;28;20111;-68
2021/12/25 07:32:48;;;;;;;12.90;8.40;;;;;;;2.38;84.54;100713.84;5093226;28;20099;-68
2021/12/25 07:35:13;;;;;;;13.18;8.75;;;;;;;2.36;84.79;100717.25;5093122;28;20059;-68
2021/12/25 07:37:38;;;;;;;11.90;8.43;;;;;;;2.42;85.08;100718.38;5093032;28;20020;-68
2021/12/25 07:40:06;;;;;;;13.13;8.32;;;;;;;2.42;84.71;100720.09;5093102;28;20537;-67
2021/12/25 07:42:33;;;;;;;12.60;7.90;;;;;;;2.39;84.31;100731.28;5093237;28;20388;-67
2021/12/25 07:45:04;;;;;;;10.68;7.57;;;;;;;2.42;84.57;100720.09;5093110;28;20525;-67
2021/12/25 07:47:32;;;;;;;10.32;6.65;;;;;;;2.32;82.42;100715.34;5092987;28;20396;-67
2021/12/25 07:49:59;;;;;;;9.38;6.38;;;;;;;2.22;82.75;100722.75;5092778;28;20039;-67
2021/12/25 07:52:25;;;;;;;8.60;6.35;;;;;;;2.15;82.13;100733.75;5092701;28;20389;-68
2021/12/25 07:54:51;;;;;;;7.80;5.80;;;;;;;2.12;83.47;100720.59;5092774;28;20020;-66
2021/12/25 07:57:16;;;;;;;7.78;6.05;;;;;;;2.10;81.80;100732.69;5092253;28;20023;-67
2021/12/25 07:59:42;;;;;;;9.30;6.30;;;;;;;2.02;82.77;100726.25;5092420;28;20028;-67
2021/12/25 08:02:08;;;;;;;8.52;6.28;;;;;;;2.01;83.62;100729.66;5092169;28;20027;-67
2021/12/25 08:04:33;;;;;;;9.70;6.40;;;;;;;1.96;83.31;100732.06;5092374;28;20035;-67
2021/12/25 08:06:59;;;;;;;9.27;6.47;;;;;;;1.98;82.33;100743.47;5092290;28;20107;-67
2021/12/25 08:09:31;;;;;;;10.52;6.32;;;;;;;1.94;83.46;100738.94;5074143;28;20115;-69
2021/12/25 08:12:01;;;;;;;8.85;6.22;;;;;;;1.86;82.29;100745.53;5092566;28;20028;-67
2021/12/25 08:14:28;;;;;;;9.52;6.15;;;;;;;1.79;81.66;100746.06;5092226;28;20043;-67
2021/12/25 08:16:56;;;;;;;9.27;6.43;;;;;;;1.73;82.90;100751.91;5092243;28;20020;-67
2021/12/25 08:19:22;;;;;;;8.10;6.10;;;;;;;1.72;82.00;100752.72;5092218;28;20115;-66
2021/12/25 08:21:48;;;;;;;9.35;6.82;;;;;;;1.71;82.90;100755.25;5092003;28;20561;-67
2021/12/25 08:24:14;;;;;;;9.00;7.05;;;;;;;1.70;82.95;100761.28;5092375;28;20022;-67
2021/12/25 08:26:40;;;;;;;7.63;5.80;;;;;;;1.78;83.24;100759.03;5092420;28;20035;-67
2021/12/25 08:29:06;;;;;;;8.50;5.53;;;;;;;1.76;81.61;100756.38;5092176;28;20028;-67
2021/12/25 08:31:31;;;;;;;8.23;5.78;;;;;;;1.79;82.23;100763.41;5091930;28;20024;-66
2021/12/25 08:33:57;;;;;;;7.80;5.88;;;;;;;1.74;81.45;100774.50;5092163;28;20108;-69
2021/12/25 08:36:22;;;;;;;9.20;5.90;;;;;;;1.75;83.00;100765.88;5091938;28;20020;-67
2021/12/25 08:38:48;;;;;;;6.88;5.88;;;;;;;1.81;81.36;100767.88;5093293;28;20037;-66
2021/12/25 08:41:13;;;;;;;7.38;5.35;;;;;;;1.76;80.52;100782.41;5095651;28;20107;-67
2021/12/25 08:43:46;;;;;;;7.28;5.65;;;;;;;1.73;81.00;100777.94;5095900;28;20035;-66
2021/12/25 08:46:18;;;;;;;8.95;6.15;;;;;;;1.63;80.70;100783.56;5095418;28;20024;-67
2021/12/25 08:48:45;;;;;;;11.18;6.32;;;;;;;1.67;82.94;100795.91;5095775;28;20416;-66
2021/12/25 08:51:13;;;;;;;9.63;5.82;;;;;;;1.68;81.50;100794.19;5095343;28;20081;-66
2021/12/25 08:53:38;;;;;;;7.22;5.65;;;;;;;1.68;81.19;100795.09;5095633;28;20089;-67
2021/12/25 08:56:04;;;;;;;8.07;5.57;;;;;;;1.65;81.03;100797.53;5095465;28;20032;-66
2021/12/25 08:58:31;;;;;;;8.15;5.70;;;;;;;1.69;80.70;100798.56;5095403;28;20111;-68
2021/12/25 09:01:01;;;;;;;8.98;5.75;;;;;;;1.62;80.75;100793.91;5095413;28;20134;-67
2021/12/25 09:03:28;;;;;;;13.27;6.10;;;;;;;1.59;80.74;100805.09;5077177;28;20031;-66
2021/12/25 09:05:58;;;;;;;8.60;5.88;;;;;;;1.56;80.30;100810.16;5095112;28;20031;-67
2021/12/25 09:08:24;;;;;;;14.27;9.88;;;;;;;1.57;81.56;100811.03;5095033;28;20058;-67
2021/12/25 09:10:50;;;;;;;10.60;6.47;;;;;;;1.59;80.03;100805.09;5095396;28;20043;-66
2021/12/25 09:13:15;;;;;;;8.27;6.57;;;;;;;1.63;80.69;100811.34;5095066;28;20028;-66
2021/12/25 09:15:41;;;;;;;9.20;6.07;;;;;;;1.69;80.73;100814.22;5095126;28;20025;-67
2021/12/25 09:18:07;;;;;;;7.68;5.90;;;;;;;1.62;80.03;100825.16;5095024;28;20032;-66
2021/12/25 09:20:33;;;;;;;8.88;7.07;;;;;;;1.58;80.36;100810.22;5094866;28;20031;-66
2021/12/25 09:22:58;;;;;;;8.23;6.07;;;;;;;1.54;80.38;100814.38;5094912;28;20056;-66
2021/12/25 09:25:26;;;;;;;7.25;5.45;;;;;;;1.54;79.64;100819.59;5094912;28;20085;-66
2021/12/25 09:27:52;;;;;;;8.65;6.00;;;;;;;1.56;80.23;100817.97;5094888;28;20016;-66
2021/12/25 09:30:19;;;;;;;8.00;5.95;;;;;;;1.58;81.17;100821.50;5076423;28;20020;-66
2021/12/25 09:32:45;;;;;;;12.18;6.85;;;;;;;1.54;79.76;100819.59;5076802;28;20024;-66
2021/12/25 09:35:11;;;;;;;9.98;5.97;;;;;;;1.50;79.71;100823.78;5094655;28;20039;-66
2021/12/25 09:37:36;;;;;;;8.15;6.10;;;;;;;1.49;80.70;100826.28;5094801;28;20028;-66
2021/12/25 09:40:05;;;;;;;8.20;5.75;;;;;;;1.42;78.87;100822.53;5094610;28;20034;-66
2021/12/25 09:42:34;;;;;;;8.73;6.20;;;;;;;1.35;79.24;100815.25;5076401;28;20020;-66
2021/12/25 09:45:00;;;;;;;9.27;6.10;;;;;;;1.24;79.73;100813.84;5094599;28;20032;-66
2021/12/25 09:47:26;;;;;;;7.93;5.57;;;;;;;1.25;79.72;100819.13;5094322;28;20039;-66
2021/12/25 09:49:51;;;;;;;9.13;6.53;;;;;;;1.16;80.75;100807.41;5094141;28;20028;-66
2021/12/25 09:52:18;;;;;;;9.02;6.00;;;;;;;1.18;81.20;100810.94;5094331;28;20086;-67
2021/12/25 09:54:44;;;;;;;9.50;6.57;;;;;;;1.10;80.35;100822.69;5094481;28;20050;-66
2021/12/25 09:57:09;;;;;;;8.43;6.07;;;;;;;1.12;81.46;100827.19;5094114;28;20031;-68
2021/12/25 09:59:35;;;;;;;8.10;5.65;;;;;;;1.17;79.80;100830.00;5094296;28;20401;-67
2021/12/25 10:02:01;;;;;;;8.38;6.20;;;;;;;1.20;80.37;100835.31;5094115;28;20355;-68
2021/12/25 10:04:45;;;;;;;7.75;6.35;;;;;;;1.21;80.80;100838.03;5094146;28;20036;-66
2021/12/25 10:07:25;;;;;;;8.73;5.88;;;;;;;1.22;80.88;100837.19;5094262;28;20554;-66
2021/12/25 10:10:13;;;;;;;7.55;5.82;;;;;;;1.31;79.57;100857.56;5093967;28;20077;-66
2021/12/25 10:12:45;;;;;;;9.65;6.53;;;;;;;1.28;80.19;100861.72;5094128;28;20027;-66
2021/12/25 10:15:15;;;;;;;9.32;5.22;;;;;;;1.24;79.26;100861.59;5093833;28;20016;-69
2021/12/25 10:17:58;;;;;;;7.35;5.70;;;;;;;1.22;79.12;100875.34;5093914;28;20520;-66
2021/12/25 10:20:24;;;;;;;8.45;6.03;;;;;;;1.21;79.48;100863.16;5093898;28;20032;-66
2021/12/25 10:22:55;;;;;;;8.50;5.63;;;;;;;1.16;78.91;100865.53;5093610;28;20047;-66
2021/12/25 10:25:20;;;;;;;8.68;5.93;;;;;;;1.07;79.58;100862.50;5093635;28;20115;-66
2021/12/25 10:27:54;;;;;;;7.65;5.43;;;;;;;1.11;80.14;100863.50;5093635;28;20160;-66
2021/12/25 10:30:21;;;;;;;8.00;5.70;;;;;;;1.08;78.89;100869.47;5093697;28;20052;-66
2021/12/25 10:32:47;;;;;;;9.40;5.65;;;;;;;1.08;78.44;100864.28;5093759;28;20032;-66
2021/12/25 10:35:25;;;;;;;7.57;5.13;;;;;;;1.09;78.11;100871.25;5093752;28;20032;-66
2021/12/25 10:37:51;;;;;;;8.48;5.40;;;;;;;1.08;78.33;100868.59;5075465;28;20024;-67
2021/12/25 10:40:18;;;;;;;7.22;5.43;;;;;;;0.99;77.95;100864.72;5093394;28;20342;-65
2021/12/25 10:42:45;;;;;;;6.28;4.82;;;;;;;0.95;77.41;100867.97;5093571;28;20473;-66
2021/12/25 10:45:14;;;;;;;6.80;5.03;;;;;;;0.96;78.98;100864.56;5093547;28;20028;-66
2021/12/25 10:47:40;;;;;;;8.02;5.05;;;;;;;0.97;78.51;100861.13;5093470;28;20111;-66
2021/12/25 10:50:25;;;;;;;7.20;5.15;;;;;;;1.03;78.31;100862.25;5093681;28;20108;-66
2021/12/25 10:52:50;;;;;;;7.15;4.78;;;;;;;1.10;78.19;100862.63;5093246;28;20028;-65
2021/12/25 10:55:23;;;;;;;7.60;4.90;;;;;;;1.19;78.82;100863.06;5093059;28;20031;-66
2021/12/25 10:57:58;;;;;;;7.50;4.57;;;;;;;1.24;78.10;100866.81;5093199;28;20032;-66
2021/12/25 11:00:32;;;;;;;7.18;4.60;;;;;;;1.27;76.64;100849.53;5093037;28;20041;-66
2021/12/25 11:03:00;;;;;;;6.10;4.43;;;;;;;1.22;77.69;100852.81;5093003;28;20473;-65
2021/12/25 11:05:30;;;;;;;6.57;4.00;;;;;;;1.17;76.61;100859.50;5093176;28;20149;-67
2021/12/25 11:08:09;;;;;;;6.05;3.85;;;;;;;1.13;77.11;100854.97;5092887;28;20061;-65
2021/12/25 11:10:45;;;;;;;6.43;4.43;;;;;;;1.14;77.51;100850.66;5093080;28;20028;-65
2021/12/25 11:13:29;;;;;;;6.88;4.15;;;;;;;1.18;78.93;100840.47;5092826;28;20028;-66
2021/12/25 11:16:04;;;;;;;6.72;4.07;;;;;;;1.31;78.12;100836.75;5092837;28;20143;-67
2021/12/25 11:18:47;;;;;;;6.32;3.83;;;;;;;1.43;77.59;100834.72;5074687;28;20054;-66
2021/12/25 11:21:12;;;;;;;5.85;3.85;;;;;;;1.51;77.95;100845.50;5092654;28;20052;-66
2021/12/25 11:23:40;;;;;;;6.80;4.10;;;;;;;1.61;77.46;100850.31;5074553;28;20064;-67
2021/12/25 11:26:05;;;;;;;11.20;5.57;;;;;;;1.72;77.62;100853.44;5074769;28;20040;-67
2021/12/25 11:28:33;;;;;;;7.07;4.10;;;;;;;1.83;76.98;100849.59;5093071;28;20431;-66
2021/12/25 11:31:03;;;;;;;8.88;5.10;;;;;;;2.09;75.89;100852.47;5092991;28;20120;-67
2021/12/25 11:33:29;;;;;;;9.68;4.10;;;;;;;2.32;75.00;100851.81;5093125;28;20032;-67
2021/12/25 11:36:07;;;;;;;7.22;4.50;;;;;;;2.49;75.85;100849.94;5074854;28;20098;-65
2021/12/25 11:38:33;;;;;;;8.70;4.60;;;;;;;2.74;74.96;100859.66;5074728;28;20028;-65
2021/12/25 11:41:09;;;;;;;6.70;4.28;;;;;;;2.98;73.96;100842.44;5092786;28;20415;-65
2021/12/25 11:43:47;;;;;;;5.53;3.65;;;;;;;3.24;72.85;100835.66;5074464;28;20041;-66
2021/12/25 11:46:15;;;;;;;5.60;3.30;;;;;;;3.49;72.23;100836.63;5074306;28;20146;-65
2021/12/25 11:48:41;;;;;;;6.68;3.10;;;;;;;3.68;68.61;100831.28;5092534;28;20415;-65
2021/12/25 11:51:29;;;;;;;4.18;2.65;;;;;;;3.81;68.71;100832.63;5092648;28;20032;-65
2021/12/25 11:54:13;;;;;;;4.57;2.60;;;;;;;4.03;69.64;100833.44;5074381;28;20028;-66
2021/12/25 11:59:49;;;;;;;;;;;;;;;4.50;69.29;100814.22;5061237;28;20036;-65
2021/12/25 12:02:38;;;;;;;5.47;2.92;;;;;;;4.74;68.17;100825.50;5092332;28;19912;-65
2021/12/25 12:05:26;;;;;;;5.05;2.50;;;;;;;4.75;64.22;100810.69;5092817;28;20385;-66
2021/12/25 12:08:10;;;;;;;3.70;2.30;;;;;;;4.87;65.08;100834.66;5092367;28;20059;-66
2021/12/25 12:11:02;;;;;;;4.60;2.30;;;;;;;4.77;63.73;100827.34;5092230;28;20024;-67
2021/12/25 12:13:30;;;;;;;5.13;2.55;;;;;;;4.58;62.57;100827.53;5089724;28;20094;-67
2021/12/25 12:16:01;;;;;;;6.25;3.60;;;;;;;4.34;64.39;100827.59;5096158;28;20056;-67
2021/12/25 12:18:27;;;;;;;4.75;2.58;;;;;;;4.15;64.66;100824.28;5096256;28;20032;-67
2021/12/25 12:20:59;;;;;;;5.28;3.00;;;;;;;3.87;65.71;100818.91;5095711;28;20530;-68
2021/12/25 12:24:26;;;;;;;4.57;2.70;;;;;;;3.72;66.86;100832.28;5077764;28;20059;-67
2021/12/25 12:26:44;;;;;;;22.88;9.80;;;;;;;3.55;67.43;100822.91;5085045;28;20065;-66
2021/12/25 12:29:10;;;;;;;6.05;2.67;;;;;;;3.38;65.06;100827.47;5096021;28;20028;-67
2021/12/25 12:31:47;;;;;;;6.35;2.90;;;;;;;3.46;67.42;100828.66;5095685;28;20453;-66
2021/12/25 12:34:30;;;;;;;8.10;2.90;;;;;;;3.60;68.13;100819.66;5095894;28;20027;-66
2021/12/25 12:37:13;;;;;;;3.70;2.58;;;;;;;3.71;66.94;100818.31;5095859;28;20091;-66
2021/12/25 12:40:04;;;;;;;4.47;3.20;;;;;;;3.90;66.52;100814.69;5095674;28;20174;-66
2021/12/25 12:42:47;;;;;;;3.40;2.70;;;;;;;3.96;64.52;100804.44;5095702;28;20359;-66
2021/12/25 12:45:21;;;;;;;;;;;;;;;4.05;66.00;100806.50;5091143;28;20467;-66
2021/12/25 12:48:21;;;;;;;5.45;3.50;;;;;;;4.15;66.27;100807.72;5075279;28;19923;-65
2021/12/25 12:50:55;;;;;;;4.88;3.10;;;;;;;4.35;64.28;100809.31;5075174;28;20396;-66